LRI297 LEPA-LFMN
Flight info
| Callsign | LRI297 |
|---|---|
| Flight time | 1h 16m |
| Altitude | 36000 |
| Route | MEROS N853 LAPIT/N0431F300 N853 LUMAS DCT SOFFY DCT MRM DCT ABLAK |
| Aircraft | A20N/M-SDE2E3FGHIRWXY/LB1 |
Departure
| Time | 2026-05-05 18:03 |
|---|---|
| Airport | Palma de Mallorca Airport (LEPA) |
Arrival
| Time | 2026-05-05 19:19 |
|---|---|
| Airport | Nice-Côte d'Azur Airport (LFMN) |
| Time | Latitude | Longitude | Altitude | Speed | Heading |
|---|---|---|---|---|---|
| 2026-05-05 17:09 | 39.55125 | 2.72969 | 14 ft | 0 kts | 166° |
| 2026-05-05 17:49 | 39.55127 | 2.72968 | 15 ft | 2 kts | 166° |
| 2026-05-05 17:49 | 39.55142 | 2.72964 | 14 ft | 2 kts | 166° |
| 2026-05-05 17:49 | 39.55156 | 2.72959 | 13 ft | 1 kts | 166° |
| 2026-05-05 17:49 | 39.55166 | 2.72956 | 13 ft | 2 kts | 151° |
| 2026-05-05 17:50 | 39.55177 | 2.72943 | 13 ft | 2 kts | 124° |
| 2026-05-05 17:50 | 39.55183 | 2.72924 | 12 ft | 2 kts | 97° |
| 2026-05-05 17:50 | 39.55182 | 2.72905 | 12 ft | 2 kts | 71° |
| 2026-05-05 17:50 | 39.55179 | 2.72895 | 12 ft | 1 kts | 56° |
| 2026-05-05 17:51 | 39.55176 | 2.72890 | 12 ft | 0 kts | 58° |
| 2026-05-05 17:55 | 39.55183 | 2.72904 | 12 ft | 5 kts | 59° |
| 2026-05-05 17:55 | 39.55205 | 2.72952 | 13 ft | 7 kts | 60° |
| 2026-05-05 17:55 | 39.55239 | 2.73025 | 13 ft | 11 kts | 54° |
| 2026-05-05 17:56 | 39.55287 | 2.73111 | 16 ft | 13 kts | 55° |
| 2026-05-05 17:56 | 39.55338 | 2.73209 | 18 ft | 13 kts | 57° |
| 2026-05-05 17:56 | 39.55378 | 2.73313 | 19 ft | 13 kts | 63° |
| 2026-05-05 17:56 | 39.55423 | 2.73406 | 22 ft | 12 kts | 57° |
| 2026-05-05 17:57 | 39.55473 | 2.73509 | 22 ft | 14 kts | 58° |
| 2026-05-05 17:57 | 39.55554 | 2.73548 | 21 ft | 15 kts | 341° |
| 2026-05-05 17:57 | 39.55650 | 2.73523 | 19 ft | 15 kts | 33° |
| 2026-05-05 17:57 | 39.55718 | 2.73632 | 17 ft | 16 kts | 62° |
| 2026-05-05 17:58 | 39.55773 | 2.73761 | 18 ft | 16 kts | 59° |
| 2026-05-05 17:58 | 39.55831 | 2.73885 | 20 ft | 16 kts | 58° |
| 2026-05-05 17:58 | 39.55889 | 2.74002 | 20 ft | 16 kts | 56° |
| 2026-05-05 17:58 | 39.55951 | 2.74125 | 20 ft | 16 kts | 59° |
| 2026-05-05 17:59 | 39.56008 | 2.74253 | 20 ft | 16 kts | 61° |
| 2026-05-05 17:59 | 39.56068 | 2.74382 | 19 ft | 18 kts | 57° |
| 2026-05-05 17:59 | 39.56112 | 2.74442 | 17 ft | 0 kts | 17° |
| 2026-05-05 18:01 | 39.56113 | 2.74442 | 17 ft | 2 kts | 17° |
| 2026-05-05 18:01 | 39.56155 | 2.74443 | 16 ft | 10 kts | 346° |
| 2026-05-05 18:01 | 39.56227 | 2.74389 | 16 ft | 13 kts | 319° |
| 2026-05-05 18:01 | 39.56238 | 2.74282 | 16 ft | 12 kts | 252° |
| 2026-05-05 18:02 | 39.56196 | 2.74188 | 16 ft | 12 kts | 234° |
| 2026-05-05 18:02 | 39.56147 | 2.74099 | 17 ft | 17 kts | 237° |
| 2026-05-05 18:02 | 39.55950 | 2.73682 | 14 ft | 89 kts | 238° |
| 2026-05-05 18:02 | 39.55513 | 2.72765 | 10 ft | 147 kts | 241° |
| 2026-05-05 18:03 | 39.54925 | 2.71474 | 245 ft | 175 kts | 239° |
| 2026-05-05 18:03 | 39.54298 | 2.70139 | 955 ft | 173 kts | 238° |
| 2026-05-05 18:03 | 39.53666 | 2.68822 | 1717 ft | 171 kts | 238° |
| 2026-05-05 18:03 | 39.53019 | 2.67481 | 2227 ft | 182 kts | 239° |
| 2026-05-05 18:04 | 39.52306 | 2.66004 | 2619 ft | 199 kts | 239° |
| 2026-05-05 18:04 | 39.51548 | 2.64432 | 3078 ft | 211 kts | 239° |
| 2026-05-05 18:04 | 39.50745 | 2.62771 | 3614 ft | 223 kts | 239° |
| 2026-05-05 18:04 | 39.49891 | 2.61091 | 4334 ft | 229 kts | 232° |
| 2026-05-05 18:05 | 39.48604 | 2.59644 | 4834 ft | 248 kts | 213° |
| 2026-05-05 18:05 | 39.47026 | 2.58519 | 5401 ft | 263 kts | 211° |
| 2026-05-05 18:05 | 39.45398 | 2.57422 | 6200 ft | 267 kts | 211° |
| 2026-05-05 18:05 | 39.43632 | 2.56306 | 7111 ft | 269 kts | 204° |
| 2026-05-05 18:06 | 39.41756 | 2.55698 | 7989 ft | 276 kts | 187° |
| 2026-05-05 18:06 | 39.40387 | 2.55866 | 8578 ft | 284 kts | 169° |
| 2026-05-05 18:06 | 39.38066 | 2.57803 | 9718 ft | 301 kts | 134° |
| 2026-05-05 18:06 | 39.36947 | 2.60223 | 10487 ft | 311 kts | 123° |
| 2026-05-05 18:07 | 39.35789 | 2.62670 | 10876 ft | 324 kts | 131° |
| 2026-05-05 18:07 | 39.34294 | 2.65032 | 11270 ft | 339 kts | 138° |
| 2026-05-05 18:07 | 39.32590 | 2.67303 | 11603 ft | 355 kts | 140° |
| 2026-05-05 18:07 | 39.30977 | 2.69931 | 12031 ft | 378 kts | 121° |
| 2026-05-05 18:08 | 39.30312 | 2.73364 | 12718 ft | 393 kts | 94° |
| 2026-05-05 18:08 | 39.30828 | 2.76925 | 13462 ft | 401 kts | 68° |
| 2026-05-05 18:08 | 39.32268 | 2.80213 | 14178 ft | 405 kts | 57° |
| 2026-05-05 18:08 | 39.33876 | 2.83405 | 14796 ft | 410 kts | 57° |
| 2026-05-05 18:09 | 39.35402 | 2.86626 | 15391 ft | 416 kts | 59° |
| 2026-05-05 18:09 | 39.36906 | 2.90074 | 16007 ft | 421 kts | 61° |
| 2026-05-05 18:09 | 39.38323 | 2.93524 | 16603 ft | 426 kts | 63° |
| 2026-05-05 18:09 | 39.39721 | 2.97056 | 17171 ft | 431 kts | 63° |
| 2026-05-05 18:10 | 39.41089 | 3.00582 | 17758 ft | 435 kts | 63° |
| 2026-05-05 18:10 | 39.42445 | 3.04118 | 18304 ft | 439 kts | 63° |
| 2026-05-05 18:10 | 39.43816 | 3.07701 | 18875 ft | 443 kts | 63° |
| 2026-05-05 18:10 | 39.45203 | 3.11339 | 19538 ft | 443 kts | 64° |
| 2026-05-05 18:11 | 39.46587 | 3.14979 | 20092 ft | 446 kts | 63° |
| 2026-05-05 18:11 | 39.47980 | 3.18650 | 20601 ft | 451 kts | 64° |
| 2026-05-05 18:11 | 39.49388 | 3.22362 | 21102 ft | 455 kts | 63° |
| 2026-05-05 18:11 | 39.50796 | 3.26084 | 21612 ft | 458 kts | 64° |
| 2026-05-05 18:12 | 39.52247 | 3.29921 | 22106 ft | 462 kts | 64° |
| 2026-05-05 18:12 | 39.53690 | 3.33721 | 22553 ft | 466 kts | 62° |
| 2026-05-05 18:12 | 39.55619 | 3.37276 | 22963 ft | 467 kts | 42° |
| 2026-05-05 18:12 | 39.58210 | 3.40055 | 23467 ft | 466 kts | 32° |
| 2026-05-05 18:13 | 39.60899 | 3.42547 | 23831 ft | 470 kts | 32° |
| 2026-05-05 18:13 | 39.63589 | 3.45063 | 23892 ft | 472 kts | 33° |
| 2026-05-05 18:13 | 39.66290 | 3.47696 | 23896 ft | 471 kts | 34° |
| 2026-05-05 18:13 | 39.68896 | 3.50322 | 23894 ft | 472 kts | 34° |
| 2026-05-05 18:14 | 39.71478 | 3.52979 | 23895 ft | 472 kts | 35° |
| 2026-05-05 18:14 | 39.74064 | 3.55674 | 23898 ft | 472 kts | 35° |
| 2026-05-05 18:14 | 39.76629 | 3.58364 | 23899 ft | 472 kts | 36° |
| 2026-05-05 18:14 | 39.79313 | 3.61191 | 23897 ft | 472 kts | 36° |
| 2026-05-05 18:15 | 39.81936 | 3.63958 | 24132 ft | 477 kts | 36° |
| 2026-05-05 18:15 | 39.84633 | 3.66804 | 24678 ft | 478 kts | 36° |
| 2026-05-05 18:15 | 39.87297 | 3.69621 | 25137 ft | 480 kts | 36° |
| 2026-05-05 18:15 | 39.89944 | 3.72424 | 25503 ft | 484 kts | 36° |
| 2026-05-05 18:16 | 39.92613 | 3.75251 | 25870 ft | 488 kts | 36° |
| 2026-05-05 18:16 | 39.95293 | 3.78092 | 26264 ft | 490 kts | 37° |
| 2026-05-05 18:16 | 39.97993 | 3.80956 | 26625 ft | 493 kts | 36° |
| 2026-05-05 18:16 | 40.00666 | 3.83797 | 26949 ft | 497 kts | 37° |
| 2026-05-05 18:17 | 40.03353 | 3.86657 | 27309 ft | 499 kts | 36° |
| 2026-05-05 18:17 | 40.06057 | 3.89540 | 27777 ft | 499 kts | 37° |
| 2026-05-05 18:17 | 40.08773 | 3.92438 | 28268 ft | 498 kts | 36° |
| 2026-05-05 18:17 | 40.11508 | 3.95356 | 28717 ft | 497 kts | 36° |
| 2026-05-05 18:18 | 40.14189 | 3.98220 | 29139 ft | 497 kts | 36° |
| 2026-05-05 18:18 | 40.16888 | 4.01108 | 29577 ft | 496 kts | 37° |
| 2026-05-05 18:18 | 40.19559 | 4.03965 | 29965 ft | 497 kts | 37° |
| 2026-05-05 18:18 | 40.22255 | 4.06854 | 30360 ft | 497 kts | 37° |
| 2026-05-05 18:19 | 40.24949 | 4.09745 | 30763 ft | 497 kts | 37° |
| 2026-05-05 18:19 | 40.27653 | 4.12650 | 31197 ft | 496 kts | 37° |
| 2026-05-05 18:19 | 40.30330 | 4.15528 | 31624 ft | 495 kts | 37° |
| 2026-05-05 18:19 | 40.33012 | 4.18417 | 32038 ft | 494 kts | 37° |
| 2026-05-05 18:20 | 40.35699 | 4.21311 | 32396 ft | 494 kts | 37° |
| 2026-05-05 18:20 | 40.38413 | 4.24239 | 32763 ft | 494 kts | 37° |
| 2026-05-05 18:20 | 40.41137 | 4.27182 | 33135 ft | 494 kts | 37° |
| 2026-05-05 18:20 | 40.43809 | 4.30050 | 33452 ft | 493 kts | 35° |
| 2026-05-05 18:21 | 40.46616 | 4.32661 | 33762 ft | 491 kts | 29° |
| 2026-05-05 18:21 | 40.49587 | 4.34877 | 34079 ft | 488 kts | 22° |
| 2026-05-05 18:21 | 40.52701 | 4.36684 | 34355 ft | 484 kts | 15° |
| 2026-05-05 18:21 | 40.55952 | 4.38079 | 34558 ft | 481 kts | 9° |
| 2026-05-05 18:22 | 40.59229 | 4.39041 | 34761 ft | 479 kts | 4° |
| 2026-05-05 18:22 | 40.62522 | 4.39805 | 34969 ft | 479 kts | 3° |
| 2026-05-05 18:22 | 40.65811 | 4.40531 | 35174 ft | 480 kts | 3° |
| 2026-05-05 18:22 | 40.69175 | 4.41287 | 35373 ft | 481 kts | 3° |
| 2026-05-05 18:23 | 40.72479 | 4.42054 | 35575 ft | 481 kts | 3° |
| 2026-05-05 18:23 | 40.75802 | 4.42839 | 35758 ft | 482 kts | 4° |
| 2026-05-05 18:23 | 40.79128 | 4.43633 | 35870 ft | 484 kts | 4° |
| 2026-05-05 18:24 | 40.85921 | 4.45266 | 35880 ft | 486 kts | 4° |
| 2026-05-05 18:24 | 40.92615 | 4.46883 | 35888 ft | 486 kts | 4° |
| 2026-05-05 18:25 | 40.99286 | 4.48499 | 35893 ft | 486 kts | 4° |
| 2026-05-05 18:25 | 41.06000 | 4.50131 | 35893 ft | 486 kts | 4° |
| 2026-05-05 18:26 | 41.12701 | 4.51764 | 35885 ft | 485 kts | 4° |
| 2026-05-05 18:26 | 41.19372 | 4.53389 | 35884 ft | 487 kts | 4° |
| 2026-05-05 18:27 | 41.26021 | 4.55014 | 35886 ft | 486 kts | 4° |
| 2026-05-05 18:27 | 41.32737 | 4.56658 | 35888 ft | 486 kts | 4° |
| 2026-05-05 18:28 | 41.42820 | 4.59132 | 35886 ft | 487 kts | 4° |
| 2026-05-05 18:28 | 41.49681 | 4.60821 | 35889 ft | 487 kts | 4° |
| 2026-05-05 18:29 | 41.56428 | 4.62481 | 35891 ft | 488 kts | 4° |
| 2026-05-05 18:29 | 41.63167 | 4.64148 | 35889 ft | 488 kts | 4° |
| 2026-05-05 18:30 | 41.69860 | 4.65804 | 35884 ft | 490 kts | 4° |
| 2026-05-05 18:30 | 41.76644 | 4.67905 | 35886 ft | 494 kts | 10° |
| 2026-05-05 18:31 | 41.83500 | 4.70598 | 35880 ft | 495 kts | 11° |
| 2026-05-05 18:31 | 41.90498 | 4.73379 | 35880 ft | 496 kts | 11° |
| 2026-05-05 18:32 | 41.97176 | 4.76016 | 35877 ft | 497 kts | 11° |
| 2026-05-05 18:32 | 42.04042 | 4.78726 | 35871 ft | 498 kts | 11° |
| 2026-05-05 18:33 | 42.10825 | 4.81408 | 35874 ft | 498 kts | 11° |
| 2026-05-05 18:33 | 42.17561 | 4.84076 | 35876 ft | 497 kts | 11° |
| 2026-05-05 18:34 | 42.24326 | 4.86762 | 35876 ft | 497 kts | 11° |
| 2026-05-05 18:34 | 42.31046 | 4.89436 | 35876 ft | 497 kts | 11° |
| 2026-05-05 18:35 | 42.37775 | 4.92116 | 35882 ft | 499 kts | 11° |
| 2026-05-05 18:35 | 42.44554 | 4.94826 | 35889 ft | 499 kts | 11° |
| 2026-05-05 18:36 | 42.51569 | 4.97634 | 35890 ft | 498 kts | 11° |
| 2026-05-05 18:36 | 42.58331 | 5.00351 | 35891 ft | 499 kts | 11° |
| 2026-05-05 18:37 | 42.65066 | 5.03064 | 35893 ft | 498 kts | 11° |
| 2026-05-05 18:37 | 42.71817 | 5.05785 | 35892 ft | 498 kts | 11° |
| 2026-05-05 18:38 | 42.78567 | 5.08510 | 35887 ft | 499 kts | 11° |
| 2026-05-05 18:38 | 42.85286 | 5.11236 | 35518 ft | 494 kts | 11° |
| 2026-05-05 18:39 | 42.88646 | 5.12600 | 34974 ft | 495 kts | 11° |
| 2026-05-05 18:39 | 42.91993 | 5.13957 | 34370 ft | 497 kts | 11° |
| 2026-05-05 18:39 | 42.95348 | 5.15320 | 33665 ft | 501 kts | 11° |
| 2026-05-05 18:39 | 42.98785 | 5.16723 | 33000 ft | 501 kts | 11° |
| 2026-05-05 18:40 | 43.02239 | 5.18130 | 32415 ft | 500 kts | 11° |
| 2026-05-05 18:40 | 43.05645 | 5.19516 | 31818 ft | 500 kts | 11° |
| 2026-05-05 18:40 | 43.09048 | 5.20903 | 31201 ft | 499 kts | 11° |
| 2026-05-05 18:40 | 43.12424 | 5.22280 | 30593 ft | 498 kts | 11° |
| 2026-05-05 18:41 | 43.15805 | 5.23658 | 29955 ft | 497 kts | 11° |
| 2026-05-05 18:41 | 43.19212 | 5.25047 | 29264 ft | 497 kts | 11° |
| 2026-05-05 18:41 | 43.22656 | 5.26448 | 28588 ft | 496 kts | 12° |
| 2026-05-05 18:41 | 43.26027 | 5.27827 | 27926 ft | 495 kts | 12° |
| 2026-05-05 18:42 | 43.29417 | 5.29216 | 27233 ft | 494 kts | 12° |
| 2026-05-05 18:42 | 43.32833 | 5.30616 | 26548 ft | 492 kts | 12° |
| 2026-05-05 18:42 | 43.36091 | 5.32097 | 26080 ft | 487 kts | 18° |
| 2026-05-05 18:42 | 43.39217 | 5.34052 | 25603 ft | 484 kts | 26° |
| 2026-05-05 18:43 | 43.42152 | 5.36453 | 25117 ft | 479 kts | 31° |
| 2026-05-05 18:43 | 43.44948 | 5.39009 | 24916 ft | 474 kts | 33° |
| 2026-05-05 18:43 | 43.47702 | 5.41623 | 24909 ft | 477 kts | 37° |
| 2026-05-05 18:43 | 43.50107 | 5.44912 | 24902 ft | 476 kts | 54° |
| 2026-05-05 18:44 | 43.51761 | 5.48905 | 24906 ft | 472 kts | 70° |
| 2026-05-05 18:44 | 43.52969 | 5.53273 | 24910 ft | 470 kts | 73° |
| 2026-05-05 18:44 | 43.54085 | 5.57585 | 24902 ft | 470 kts | 73° |
| 2026-05-05 18:44 | 43.55226 | 5.61879 | 24904 ft | 470 kts | 72° |
| 2026-05-05 18:45 | 43.56294 | 5.66236 | 24901 ft | 469 kts | 78° |
| 2026-05-05 18:45 | 43.56998 | 5.70704 | 24903 ft | 465 kts | 86° |
| 2026-05-05 18:45 | 43.57375 | 5.75176 | 24901 ft | 462 kts | 90° |
| 2026-05-05 18:45 | 43.57653 | 5.79620 | 24903 ft | 462 kts | 90° |
| 2026-05-05 18:46 | 43.57920 | 5.84127 | 24904 ft | 462 kts | 90° |
| 2026-05-05 18:46 | 43.58197 | 5.88656 | 24896 ft | 462 kts | 90° |
| 2026-05-05 18:46 | 43.58482 | 5.93157 | 24909 ft | 463 kts | 90° |
| 2026-05-05 18:46 | 43.58769 | 5.97606 | 24900 ft | 463 kts | 90° |
| 2026-05-05 18:47 | 43.59060 | 6.02079 | 24901 ft | 464 kts | 89° |
| 2026-05-05 18:47 | 43.59345 | 6.06725 | 24906 ft | 461 kts | 92° |
| 2026-05-05 18:47 | 43.59119 | 6.11360 | 24894 ft | 449 kts | 107° |
| 2026-05-05 18:47 | 43.58246 | 6.15446 | 24550 ft | 439 kts | 116° |
| 2026-05-05 18:48 | 43.57146 | 6.19383 | 23655 ft | 443 kts | 117° |
| 2026-05-05 18:48 | 43.55993 | 6.23349 | 22867 ft | 443 kts | 117° |
| 2026-05-05 18:48 | 43.54871 | 6.27270 | 22301 ft | 438 kts | 116° |
| 2026-05-05 18:48 | 43.53776 | 6.31174 | 21808 ft | 432 kts | 116° |
| 2026-05-05 18:49 | 43.52715 | 6.35005 | 21394 ft | 424 kts | 116° |
| 2026-05-05 18:49 | 43.51672 | 6.38774 | 20973 ft | 417 kts | 116° |
| 2026-05-05 18:49 | 43.50588 | 6.42439 | 20573 ft | 405 kts | 123° |
| 2026-05-05 18:49 | 43.49001 | 6.45544 | 20193 ft | 386 kts | 137° |
| 2026-05-05 18:50 | 43.47174 | 6.48194 | 19856 ft | 377 kts | 139° |
| 2026-05-05 18:50 | 43.45322 | 6.50805 | 19519 ft | 369 kts | 139° |
| 2026-05-05 18:50 | 43.43518 | 6.53361 | 19171 ft | 362 kts | 139° |
| 2026-05-05 18:50 | 43.41773 | 6.55851 | 18788 ft | 357 kts | 139° |
| 2026-05-05 18:51 | 43.40064 | 6.58305 | 18413 ft | 352 kts | 139° |
| 2026-05-05 18:51 | 43.38587 | 6.61014 | 18009 ft | 358 kts | 118° |
| 2026-05-05 18:51 | 43.37995 | 6.64506 | 17624 ft | 366 kts | 95° |
| 2026-05-05 18:51 | 43.38449 | 6.68158 | 17220 ft | 370 kts | 70° |
| 2026-05-05 18:52 | 43.39876 | 6.71159 | 16864 ft | 368 kts | 46° |
| 2026-05-05 18:52 | 43.41738 | 6.73571 | 16542 ft | 363 kts | 43° |
| 2026-05-05 18:52 | 43.43620 | 6.75895 | 16242 ft | 357 kts | 43° |
| 2026-05-05 18:52 | 43.45482 | 6.78235 | 15966 ft | 350 kts | 43° |
| 2026-05-05 18:53 | 43.47280 | 6.80645 | 15665 ft | 344 kts | 52° |
| 2026-05-05 18:53 | 43.48344 | 6.83523 | 15364 ft | 331 kts | 83° |
| 2026-05-05 18:53 | 43.48254 | 6.86716 | 15058 ft | 311 kts | 115° |
| 2026-05-05 18:53 | 43.47110 | 6.89125 | 14749 ft | 289 kts | 147° |
| 2026-05-05 18:54 | 43.45269 | 6.90365 | 14446 ft | 270 kts | 173° |
| 2026-05-05 18:54 | 43.43425 | 6.90496 | 14141 ft | 259 kts | 192° |
| 2026-05-05 18:54 | 43.41705 | 6.89827 | 13758 ft | 255 kts | 208° |
| 2026-05-05 18:54 | 43.40262 | 6.88350 | 13354 ft | 254 kts | 229° |
| 2026-05-05 18:55 | 43.39267 | 6.86322 | 12980 ft | 253 kts | 238° |
| 2026-05-05 18:55 | 43.38342 | 6.84212 | 12594 ft | 253 kts | 237° |
| 2026-05-05 18:55 | 43.37406 | 6.82105 | 12231 ft | 253 kts | 237° |
| 2026-05-05 18:55 | 43.36462 | 6.80007 | 11853 ft | 253 kts | 237° |
| 2026-05-05 18:56 | 43.35518 | 6.77918 | 11497 ft | 252 kts | 237° |
| 2026-05-05 18:56 | 43.34605 | 6.75830 | 11136 ft | 252 kts | 244° |
| 2026-05-05 18:56 | 43.34234 | 6.73466 | 10713 ft | 259 kts | 270° |
| 2026-05-05 18:56 | 43.34647 | 6.71049 | 10343 ft | 264 kts | 292° |
| 2026-05-05 18:57 | 43.35760 | 6.68989 | 9978 ft | 270 kts | 316° |
| 2026-05-05 18:57 | 43.37458 | 6.67686 | 9593 ft | 274 kts | 343° |
| 2026-05-05 18:57 | 43.39359 | 6.67494 | 9277 ft | 275 kts | 9° |
| 2026-05-05 18:57 | 43.41124 | 6.68396 | 9012 ft | 271 kts | 34° |
| 2026-05-05 18:58 | 43.42451 | 6.70198 | 8759 ft | 265 kts | 58° |
| 2026-05-05 18:58 | 43.43460 | 6.72449 | 8497 ft | 260 kts | 61° |
| 2026-05-05 18:58 | 43.44395 | 6.74638 | 8227 ft | 256 kts | 61° |
| 2026-05-05 18:58 | 43.45337 | 6.76803 | 7932 ft | 254 kts | 60° |
| 2026-05-05 18:59 | 43.46286 | 6.78944 | 7780 ft | 250 kts | 59° |
| 2026-05-05 18:59 | 43.47182 | 6.81141 | 7569 ft | 263 kts | 72° |
| 2026-05-05 18:59 | 43.47398 | 6.83687 | 7187 ft | 262 kts | 100° |
| 2026-05-05 18:59 | 43.46785 | 6.86148 | 6848 ft | 258 kts | 123° |
| 2026-05-05 19:00 | 43.45823 | 6.88220 | 6534 ft | 258 kts | 121° |
| 2026-05-05 19:00 | 43.45158 | 6.90497 | 6217 ft | 259 kts | 107° |
| 2026-05-05 19:00 | 43.44675 | 6.93064 | 5886 ft | 259 kts | 105° |
| 2026-05-05 19:00 | 43.44263 | 6.95483 | 5582 ft | 258 kts | 104° |
| 2026-05-05 19:01 | 43.43867 | 6.97945 | 5281 ft | 256 kts | 103° |
| 2026-05-05 19:01 | 43.43495 | 7.00303 | 5235 ft | 242 kts | 103° |
| 2026-05-05 19:01 | 43.43147 | 7.02539 | 5223 ft | 236 kts | 103° |
| 2026-05-05 19:01 | 43.42785 | 7.04880 | 5178 ft | 233 kts | 103° |
| 2026-05-05 19:02 | 43.42454 | 7.07029 | 5138 ft | 220 kts | 103° |
| 2026-05-05 19:02 | 43.42133 | 7.09093 | 5038 ft | 214 kts | 103° |
| 2026-05-05 19:02 | 43.41967 | 7.11175 | 4845 ft | 214 kts | 79° |
| 2026-05-05 19:02 | 43.42748 | 7.12926 | 4760 ft | 207 kts | 41° |
| 2026-05-05 19:03 | 43.43955 | 7.14135 | 4555 ft | 208 kts | 36° |
| 2026-05-05 19:03 | 43.45184 | 7.15342 | 4281 ft | 208 kts | 38° |
| 2026-05-05 19:03 | 43.46419 | 7.16486 | 3986 ft | 205 kts | 23° |
| 2026-05-05 19:03 | 43.47819 | 7.16665 | 3710 ft | 201 kts | 355° |
| 2026-05-05 19:04 | 43.49194 | 7.16385 | 3445 ft | 196 kts | 351° |
| 2026-05-05 19:04 | 43.50544 | 7.16098 | 3137 ft | 195 kts | 353° |
| 2026-05-05 19:04 | 43.51891 | 7.15873 | 2848 ft | 192 kts | 355° |
| 2026-05-05 19:04 | 43.53219 | 7.15680 | 2614 ft | 190 kts | 355° |
| 2026-05-05 19:05 | 43.54529 | 7.15474 | 2322 ft | 188 kts | 355° |
| 2026-05-05 19:05 | 43.55831 | 7.15262 | 2046 ft | 185 kts | 355° |
| 2026-05-05 19:05 | 43.57126 | 7.15046 | 2006 ft | 187 kts | 355° |
| 2026-05-05 19:05 | 43.58423 | 7.14832 | 2001 ft | 188 kts | 355° |
| 2026-05-05 19:06 | 43.59728 | 7.14615 | 1991 ft | 189 kts | 355° |
| 2026-05-05 19:06 | 43.61045 | 7.14530 | 1865 ft | 183 kts | 6° |
| 2026-05-05 19:06 | 43.62076 | 7.15148 | 1922 ft | 150 kts | 55° |
| 2026-05-05 19:06 | 43.62573 | 7.16426 | 1418 ft | 157 kts | 64° |
| 2026-05-05 19:07 | 43.63236 | 7.17611 | 1026 ft | 157 kts | 48° |
| 2026-05-05 19:07 | 43.63983 | 7.18725 | 531 ft | 163 kts | 50° |
| 2026-05-05 19:07 | 43.64760 | 7.19792 | 279 ft | 150 kts | 47° |
| 2026-05-05 19:07 | 43.65487 | 7.20812 | 99 ft | 154 kts | 49° |
| 2026-05-05 19:08 | 43.66225 | 7.21823 | 714 ft | 145 kts | 46° |
| 2026-05-05 19:08 | 43.66944 | 7.22757 | 1299 ft | 142 kts | 45° |
| 2026-05-05 19:08 | 43.67668 | 7.23668 | 1811 ft | 143 kts | 43° |
| 2026-05-05 19:08 | 43.68416 | 7.24586 | 2249 ft | 150 kts | 44° |
| 2026-05-05 19:09 | 43.69210 | 7.25616 | 2193 ft | 159 kts | 48° |
| 2026-05-05 19:09 | 43.69922 | 7.26796 | 2081 ft | 161 kts | 56° |
| 2026-05-05 19:09 | 43.70359 | 7.28230 | 2365 ft | 165 kts | 83° |
| 2026-05-05 19:09 | 43.70348 | 7.29813 | 2811 ft | 161 kts | 95° |
| 2026-05-05 19:10 | 43.70040 | 7.31276 | 2993 ft | 161 kts | 123° |
| 2026-05-05 19:10 | 43.69319 | 7.32457 | 3001 ft | 160 kts | 133° |
| 2026-05-05 19:10 | 43.68418 | 7.33450 | 2980 ft | 161 kts | 159° |
| 2026-05-05 19:10 | 43.67312 | 7.33389 | 2982 ft | 166 kts | 205° |
| 2026-05-05 19:11 | 43.66377 | 7.32392 | 3012 ft | 168 kts | 222° |
| 2026-05-05 19:11 | 43.65549 | 7.31225 | 3002 ft | 168 kts | 225° |
| 2026-05-05 19:11 | 43.64739 | 7.30039 | 2998 ft | 168 kts | 225° |
| 2026-05-05 19:11 | 43.63922 | 7.28835 | 2995 ft | 169 kts | 225° |
| 2026-05-05 19:12 | 43.63110 | 7.27638 | 2995 ft | 170 kts | 225° |
| 2026-05-05 19:12 | 43.62293 | 7.26452 | 2996 ft | 170 kts | 225° |
| 2026-05-05 19:12 | 43.61466 | 7.25271 | 2997 ft | 169 kts | 225° |
| 2026-05-05 19:12 | 43.60659 | 7.24114 | 2877 ft | 157 kts | 225° |
| 2026-05-05 19:13 | 43.59886 | 7.22978 | 2546 ft | 151 kts | 225° |
| 2026-05-05 19:13 | 43.59133 | 7.21856 | 2171 ft | 150 kts | 225° |
| 2026-05-05 19:13 | 43.58429 | 7.20799 | 2002 ft | 147 kts | 225° |
| 2026-05-05 19:13 | 43.57668 | 7.19657 | 2036 ft | 161 kts | 225° |
| 2026-05-05 19:14 | 43.57035 | 7.18373 | 1968 ft | 153 kts | 257° |
| 2026-05-05 19:14 | 43.57223 | 7.16955 | 1977 ft | 154 kts | 308° |
| 2026-05-05 19:14 | 43.58112 | 7.16173 | 2020 ft | 153 kts | 345° |
| 2026-05-05 19:14 | 43.59161 | 7.15859 | 2013 ft | 152 kts | 352° |
| 2026-05-05 19:15 | 43.60190 | 7.15918 | 1982 ft | 148 kts | 28° |
| 2026-05-05 19:15 | 43.60825 | 7.16962 | 1989 ft | 145 kts | 78° |
| 2026-05-05 19:15 | 43.60620 | 7.18285 | 1992 ft | 145 kts | 128° |
| 2026-05-05 19:15 | 43.59671 | 7.18883 | 1990 ft | 149 kts | 181° |
| 2026-05-05 19:16 | 43.58716 | 7.18260 | 2009 ft | 153 kts | 220° |
| 2026-05-05 19:16 | 43.58257 | 7.16956 | 1990 ft | 157 kts | 268° |
| 2026-05-05 19:16 | 43.58659 | 7.15590 | 1991 ft | 157 kts | 317° |
| 2026-05-05 19:16 | 43.59621 | 7.14979 | 1717 ft | 153 kts | 357° |
| 2026-05-05 19:17 | 43.60655 | 7.15206 | 1429 ft | 151 kts | 19° |
| 2026-05-05 19:17 | 43.61663 | 7.15674 | 940 ft | 155 kts | 25° |
| 2026-05-05 19:17 | 43.62559 | 7.16382 | 706 ft | 138 kts | 47° |
| 2026-05-05 19:17 | 43.63166 | 7.17392 | 446 ft | 134 kts | 55° |
| 2026-05-05 19:18 | 43.63752 | 7.18385 | 335 ft | 134 kts | 49° |
| 2026-05-05 19:18 | 43.64400 | 7.19314 | 255 ft | 134 kts | 48° |
| 2026-05-05 19:18 | 43.65064 | 7.20219 | 171 ft | 134 kts | 49° |
| 2026-05-05 19:18 | 43.65722 | 7.21150 | 45 ft | 133 kts | 48° |
| 2026-05-05 19:19 | 43.66331 | 7.22000 | 21 ft | 102 kts | 45° |
| 2026-05-05 19:19 | 43.66675 | 7.22458 | 21 ft | 33 kts | 44° |
| 2026-05-05 19:19 | 43.66742 | 7.22457 | 22 ft | 8 kts | 251° |
| 2026-05-05 19:19 | 43.66765 | 7.22419 | 23 ft | 6 kts | 327° |
| 2026-05-05 19:20 | 43.66802 | 7.22386 | 24 ft | 6 kts | 313° |
| 2026-05-05 19:20 | 43.66808 | 7.22328 | 24 ft | 7 kts | 248° |
| 2026-05-05 19:20 | 43.66778 | 7.22258 | 23 ft | 9 kts | 258° |
| 2026-05-05 19:20 | 43.66788 | 7.22193 | 23 ft | 4 kts | 302° |